sensor_id;sensor_type;location;lat;lon;timestamp;pressure;altitude;pressure_sealevel;temperature;humidity
74279;BME280;62658;26.660;87.704;2022-08-01T12:20:38;86024.19;;;25.76;76.43
74279;BME280;62658;26.660;87.704;2022-08-01T12:23:10;86023.81;;;25.84;75.73
74279;BME280;62658;26.660;87.704;2022-08-01T12:25:37;86027.13;;;25.87;75.55
74279;BME280;62658;26.660;87.704;2022-08-01T12:28:11;86036.72;;;25.71;77.69
74279;BME280;62658;26.660;87.704;2022-08-01T12:30:40;86044.25;;;25.40;78.44
74279;BME280;62658;26.660;87.704;2022-08-01T12:33:07;86047.00;;;25.26;78.75
74279;BME280;62658;26.660;87.704;2022-08-01T12:35:34;86038.19;;;25.08;79.65
74279;BME280;62658;26.660;87.704;2022-08-01T12:38:04;86053.88;;;24.93;80.23
74279;BME280;62658;26.660;87.704;2022-08-01T12:40:34;86054.06;;;24.89;80.32
74279;BME280;62658;26.660;87.704;2022-08-01T12:43:01;86055.63;;;24.52;81.35
74279;BME280;62658;26.660;87.704;2022-08-01T12:45:38;86062.34;;;24.87;81.35
74279;BME280;62658;26.660;87.704;2022-08-01T12:48:09;86062.25;;;25.20;79.16
74279;BME280;62658;26.660;87.704;2022-08-01T12:55:45;86080.56;;;24.75;80.80
74279;BME280;62658;26.660;87.704;2022-08-01T12:58:17;86092.53;;;24.83;80.72
74279;BME280;62658;26.660;87.704;2022-08-01T13:00:48;86090.34;;;24.70;81.14
74279;BME280;62658;26.660;87.704;2022-08-01T13:03:19;86101.41;;;24.66;81.19
74279;BME280;62658;26.660;87.704;2022-08-01T13:08:15;86091.50;;;24.58;81.57
74279;BME280;62658;26.660;87.704;2022-08-01T13:10:42;86096.81;;;24.46;81.85
74279;BME280;62658;26.660;87.704;2022-08-01T13:13:09;86096.31;;;24.41;81.71
74279;BME280;62658;26.660;87.704;2022-08-01T13:15:38;86098.47;;;24.38;82.15
74279;BME280;62658;26.660;87.704;2022-08-01T13:18:24;86096.63;;;24.33;82.19
74279;BME280;62658;26.660;87.704;2022-08-01T15:00:26;86210.34;;;23.65;84.18
74279;BME280;62658;26.660;87.704;2022-08-01T15:02:56;86233.09;;;23.76;84.13
74279;BME280;62658;26.660;87.704;2022-08-01T15:05:22;86215.72;;;23.67;84.14
74279;BME280;62658;26.660;87.704;2022-08-01T15:42:32;86264.34;;;23.98;83.38
74279;BME280;62658;26.660;87.704;2022-08-01T15:45:00;86254.38;;;23.90;83.17
74279;BME280;62658;26.660;87.704;2022-08-01T15:47:26;86254.03;;;23.82;83.38
74279;BME280;62658;26.660;87.704;2022-08-01T15:49:52;86260.44;;;23.74;83.61
74279;BME280;62658;26.660;87.704;2022-08-01T15:52:18;86264.69;;;23.69;83.69
74279;BME280;62658;26.660;87.704;2022-08-01T15:54:44;86255.41;;;23.62;84.03
74279;BME280;62658;26.660;87.704;2022-08-01T15:57:10;86256.22;;;23.58;84.00
74279;BME280;62658;26.660;87.704;2022-08-01T15:59:36;86257.09;;;23.52;84.03
74279;BME280;62658;26.660;87.704;2022-08-01T16:02:02;86255.84;;;23.49;84.23
74279;BME280;62658;26.660;87.704;2022-08-01T16:04:28;86254.34;;;23.52;84.45
74279;BME280;62658;26.660;87.704;2022-08-01T16:06:54;86258.50;;;23.51;84.21
74279;BME280;62658;26.660;87.704;2022-08-01T16:09:20;86258.34;;;23.56;84.16
74279;BME280;62658;26.660;87.704;2022-08-01T16:11:46;86266.47;;;23.58;84.01
74279;BME280;62658;26.660;87.704;2022-08-01T16:14:12;86268.94;;;23.64;83.78
74279;BME280;62658;26.660;87.704;2022-08-01T16:16:37;86268.16;;;23.67;83.88
74279;BME280;62658;26.660;87.704;2022-08-01T16:19:03;86266.81;;;23.66;83.74
74279;BME280;62658;26.660;87.704;2022-08-01T16:21:29;86259.38;;;23.65;83.76
74279;BME280;62658;26.660;87.704;2022-08-01T16:23:55;86267.63;;;23.63;83.51
74279;BME280;62658;26.660;87.704;2022-08-01T16:26:21;86277.19;;;23.62;83.50
74279;BME280;62658;26.660;87.704;2022-08-01T16:28:47;86277.34;;;23.58;83.56
74279;BME280;62658;26.660;87.704;2022-08-01T16:31:17;86278.69;;;23.59;83.79
74279;BME280;62658;26.660;87.704;2022-08-01T16:33:43;86278.69;;;23.59;83.27
74279;BME280;62658;26.660;87.704;2022-08-01T16:36:09;86280.16;;;23.56;83.24
74279;BME280;62658;26.660;87.704;2022-08-01T16:38:35;86280.16;;;23.56;83.31
74279;BME280;62658;26.660;87.704;2022-08-01T16:41:03;86286.97;;;23.54;83.23
74279;BME280;62658;26.660;87.704;2022-08-01T16:43:30;86287.06;;;23.52;82.94
74279;BME280;62658;26.660;87.704;2022-08-01T16:45:55;86281.84;;;23.46;83.14
74279;BME280;62658;26.660;87.704;2022-08-01T16:48:21;86285.94;;;23.45;83.18
74279;BME280;62658;26.660;87.704;2022-08-01T16:50:47;86287.28;;;23.46;83.49
74279;BME280;62658;26.660;87.704;2022-08-01T16:53:20;86286.69;;;23.44;83.50
74279;BME280;62658;26.660;87.704;2022-08-01T16:55:47;86281.91;;;23.44;83.78
74279;BME280;62658;26.660;87.704;2022-08-01T16:58:14;86291.47;;;23.43;83.52
74279;BME280;62658;26.660;87.704;2022-08-01T17:00:40;86294.41;;;23.37;83.68
74279;BME280;62658;26.660;87.704;2022-08-01T17:03:12;86295.88;;;23.34;83.74
74279;BME280;62658;26.660;87.704;2022-08-01T17:05:38;86301.31;;;23.34;83.74
74279;BME280;62658;26.660;87.704;2022-08-01T17:08:05;86298.66;;;23.32;83.84
74279;BME280;62658;26.660;87.704;2022-08-01T17:10:32;86301.53;;;23.28;83.82
74279;BME280;62658;26.660;87.704;2022-08-01T17:12:58;86293.34;;;23.28;83.42
74279;BME280;62658;26.660;87.704;2022-08-01T17:15:25;86295.47;;;23.25;83.58
74279;BME280;62658;26.660;87.704;2022-08-01T17:17:51;86292.16;;;23.23;83.41
74279;BME280;62658;26.660;87.704;2022-08-01T17:20:22;86286.06;;;23.22;83.65
74279;BME280;62658;26.660;87.704;2022-08-01T17:22:49;86282.69;;;23.22;83.82
74279;BME280;62658;26.660;87.704;2022-08-01T17:25:15;86287.44;;;23.21;84.00
74279;BME280;62658;26.660;87.704;2022-08-01T17:27:42;86285.47;;;23.20;83.98
74279;BME280;62658;26.660;87.704;2022-08-01T17:30:08;86288.19;;;23.20;84.10
74279;BME280;62658;26.660;87.704;2022-08-01T17:32:34;86281.41;;;23.19;83.98
74279;BME280;62658;26.660;87.704;2022-08-01T17:35:00;86286.84;;;23.19;83.98
74279;BME280;62658;26.660;87.704;2022-08-01T17:37:26;86297.75;;;23.19;83.99
74279;BME280;62658;26.660;87.704;2022-08-01T17:39:52;86284.88;;;23.17;84.03
74279;BME280;62658;26.660;87.704;2022-08-01T17:42:18;86290.97;;;23.18;84.02
74279;BME280;62658;26.660;87.704;2022-08-01T17:44:44;86285.53;;;23.18;84.38
74279;BME280;62658;26.660;87.704;2022-08-01T17:47:10;86280.09;;;23.18;84.25
74279;BME280;62658;26.660;87.704;2022-08-01T17:49:36;86277.44;;;23.16;84.26
74279;BME280;62658;26.660;87.704;2022-08-01T17:52:03;86273.31;;;23.17;84.18
74279;BME280;62658;26.660;87.704;2022-08-01T17:54:29;86277.44;;;23.16;84.18
74279;BME280;62658;26.660;87.704;2022-08-01T17:56:55;86270.00;;;23.14;84.21
74279;BME280;62658;26.660;87.704;2022-08-01T17:59:21;86265.34;;;23.10;84.30
74279;BME280;62658;26.660;87.704;2022-08-01T18:01:46;86270.16;;;23.10;84.39
74279;BME280;62658;26.660;87.704;2022-08-01T18:04:12;86267.50;;;23.08;84.48
74279;BME280;62658;26.660;87.704;2022-08-01T18:06:38;86265.50;;;23.06;84.45
74279;BME280;62658;26.660;87.704;2022-08-01T18:09:04;86266.97;;;23.03;84.86
74279;BME280;62658;26.660;87.704;2022-08-01T18:11:30;86269.75;;;23.01;85.03
74279;BME280;62658;26.660;87.704;2022-08-01T18:13:56;86261.00;;;22.99;85.13
74279;BME280;62658;26.660;87.704;2022-08-01T18:16:22;86256.19;;;22.99;85.03
74279;BME280;62658;26.660;87.704;2022-08-01T18:18:48;86254.88;;;22.98;85.12
74279;BME280;62658;26.660;87.704;2022-08-01T18:21:14;86250.75;;;22.99;85.50
74279;BME280;62658;26.660;87.704;2022-08-01T18:23:39;86248.75;;;22.98;85.15
74279;BME280;62658;26.660;87.704;2022-08-01T18:26:06;86249.44;;;22.98;85.10
74279;BME280;62658;26.660;87.704;2022-08-01T18:28:33;86248.06;;;22.97;85.01
74279;BME280;62658;26.660;87.704;2022-08-01T18:31:03;86243.44;;;22.94;85.04
74279;BME280;62658;26.660;87.704;2022-08-01T18:33:29;86247.53;;;22.93;85.32
74279;BME280;62658;26.660;87.704;2022-08-01T18:35:55;86242.09;;;22.93;85.39
74279;BME280;62658;26.660;87.704;2022-08-01T18:38:21;86244.22;;;22.90;85.28
74279;BME280;62658;26.660;87.704;2022-08-01T18:40:47;86242.91;;;22.89;85.70
74279;BME280;62658;26.660;87.704;2022-08-01T18:43:13;86234.81;;;22.87;85.96
74279;BME280;62658;26.660;87.704;2022-08-01T18:45:38;86237.53;;;22.87;85.75
74279;BME280;62658;26.660;87.704;2022-08-01T18:48:04;86232.81;;;22.85;85.69
74279;BME280;62658;26.660;87.704;2022-08-01T18:50:30;86231.50;;;22.84;85.85
74279;BME280;62658;26.660;87.704;2022-08-01T18:52:56;86232.81;;;22.85;85.87
74279;BME280;62658;26.660;87.704;2022-08-01T18:55:22;86228.06;;;22.86;85.86
74279;BME280;62658;26.660;87.704;2022-08-01T18:57:48;86228.72;;;22.86;85.60
74279;BME280;62658;26.660;87.704;2022-08-01T19:00:13;86217.16;;;22.86;85.79
74279;BME280;62658;26.660;87.704;2022-08-01T19:02:40;86222.63;;;22.86;86.14
74279;BME280;62658;26.660;87.704;2022-08-01T19:05:08;86224.00;;;22.85;86.07
74279;BME280;62658;26.660;87.704;2022-08-01T19:07:34;86224.06;;;22.83;86.21
74279;BME280;62658;26.660;87.704;2022-08-01T19:10:01;86221.50;;;22.79;86.26
74279;BME280;62658;26.660;87.704;2022-08-01T19:12:26;86217.50;;;22.76;86.29
74279;BME280;62658;26.660;87.704;2022-08-01T19:14:54;86220.28;;;22.74;86.17
74279;BME280;62658;26.660;87.704;2022-08-01T19:17:20;86214.25;;;22.71;86.36
74279;BME280;62658;26.660;87.704;2022-08-01T19:19:46;86215.06;;;22.67;86.39
74279;BME280;62658;26.660;87.704;2022-08-01T19:22:12;86209.75;;;22.63;86.52
74279;BME280;62658;26.660;87.704;2022-08-01T19:24:38;86208.38;;;22.64;86.52
74279;BME280;62658;26.660;87.704;2022-08-01T19:27:05;86204.31;;;22.63;86.48
74279;BME280;62658;26.660;87.704;2022-08-01T19:29:34;86199.59;;;22.62;86.63
74279;BME280;62658;26.660;87.704;2022-08-01T19:32:00;86201.66;;;22.61;86.63
74279;BME280;62658;26.660;87.704;2022-08-01T19:34:27;86201.72;;;22.59;86.61
74279;BME280;62658;26.660;87.704;2022-08-01T19:36:55;86199.00;;;22.59;86.48
74279;BME280;62658;26.660;87.704;2022-08-01T19:39:21;86198.41;;;22.57;86.70
74279;BME280;62658;26.660;87.704;2022-08-01T19:41:50;86201.19;;;22.55;86.56
74279;BME280;62658;26.660;87.704;2022-08-01T19:44:17;86199.19;;;22.53;86.90
74279;BME280;62658;26.660;87.704;2022-08-01T19:46:43;86200.59;;;22.52;86.91
74279;BME280;62658;26.660;87.704;2022-08-01T19:49:13;86199.28;;;22.51;86.90
74279;BME280;62658;26.660;87.704;2022-08-01T19:51:41;86199.28;;;22.51;86.82
74279;BME280;62658;26.660;87.704;2022-08-01T19:54:07;86194.50;;;22.52;86.92
74279;BME280;62658;26.660;87.704;2022-08-01T19:56:38;86200.59;;;22.52;86.89
74279;BME280;62658;26.660;87.704;2022-08-01T19:59:05;86199.28;;;22.51;86.84
74279;BME280;62658;26.660;87.704;2022-08-01T20:01:35;86195.22;;;22.50;87.16
74279;BME280;62658;26.660;87.704;2022-08-01T20:04:01;86193.16;;;22.51;86.88
74279;BME280;62658;26.660;87.704;2022-08-01T20:06:30;86181.69;;;22.48;87.13
74279;BME280;62658;26.660;87.704;2022-08-01T20:08:56;86185.72;;;22.49;87.21
74279;BME280;62658;26.660;87.704;2022-08-01T20:11:22;86177.63;;;22.47;87.00
74279;BME280;62658;26.660;87.704;2022-08-01T20:13:50;86174.25;;;22.46;87.05
74279;BME280;62658;26.660;87.704;2022-08-01T20:16:16;86169.53;;;22.45;87.14
74279;BME280;62658;26.660;87.704;2022-08-01T20:18:42;86168.22;;;22.44;87.07
74279;BME280;62658;26.660;87.704;2022-08-01T20:21:10;86156.03;;;22.43;87.07
74279;BME280;62658;26.660;87.704;2022-08-01T20:23:37;86162.84;;;22.42;87.02
74279;BME280;62658;26.660;87.704;2022-08-01T20:26:03;86155.34;;;22.42;87.29
74279;BME280;62658;26.660;87.704;2022-08-01T20:28:29;86164.91;;;22.41;87.37
74279;BME280;62658;26.660;87.704;2022-08-01T20:30:58;86158.13;;;22.40;87.31
74279;BME280;62658;26.660;87.704;2022-08-01T20:33:24;86156.09;;;22.41;87.27
74279;BME280;62658;26.660;87.704;2022-08-01T20:35:54;86165.56;;;22.42;87.13
74279;BME280;62658;26.660;87.704;2022-08-01T20:38:21;86161.47;;;22.43;87.32
74279;BME280;62658;26.660;87.704;2022-08-01T20:40:47;86155.34;;;22.42;87.34
74279;BME280;62658;26.660;87.704;2022-08-01T20:43:17;86161.53;;;22.41;87.22
74279;BME280;62658;26.660;87.704;2022-08-01T20:45:44;86161.53;;;22.41;87.38
74279;BME280;62658;26.660;87.704;2022-08-01T20:48:10;86158.81;;;22.41;87.44
74279;BME280;62658;26.660;87.704;2022-08-01T20:50:36;86164.25;;;22.41;87.43
74279;BME280;62658;26.660;87.704;2022-08-01T20:53:21;86160.84;;;22.40;87.21
74279;BME280;62658;26.660;87.704;2022-08-01T20:55:48;86158.81;;;22.41;87.20
74279;BME280;62658;26.660;87.704;2022-08-01T20:58:18;86153.38;;;22.41;86.82
74279;BME280;62658;26.660;87.704;2022-08-01T21:00:47;86150.72;;;22.39;86.91
74279;BME280;62658;26.660;87.704;2022-08-01T21:03:18;86156.81;;;22.39;86.84
74279;BME280;62658;26.660;87.704;2022-08-01T21:05:50;86148.72;;;22.37;86.86
74279;BME280;62658;26.660;87.704;2022-08-01T21:08:27;86151.50;;;22.35;87.00
74279;BME280;62658;26.660;87.704;2022-08-01T21:10:55;86144.09;;;22.34;87.32
74279;BME280;62658;26.660;87.704;2022-08-01T21:13:43;86144.09;;;22.34;87.15
74279;BME280;62658;26.660;87.704;2022-08-01T21:16:09;86149.53;;;22.34;87.28
74279;BME280;62658;26.660;87.704;2022-08-01T21:21:03;86142.75;;;22.33;87.31
74279;BME280;62658;26.660;87.704;2022-08-01T21:23:39;86142.75;;;22.33;87.51
74279;BME280;62658;26.660;87.704;2022-08-01T21:26:07;86141.44;;;22.32;87.30
74279;BME280;62658;26.660;87.704;2022-08-01T21:28:33;86137.31;;;22.33;87.53
74279;BME280;62658;26.660;87.704;2022-08-01T21:30:59;86137.97;;;22.33;87.26
74279;BME280;62658;26.660;87.704;2022-08-01T21:33:26;86137.31;;;22.33;87.39
74279;BME280;62658;26.660;87.704;2022-08-01T21:35:58;86144.09;;;22.34;87.37
74279;BME280;62658;26.660;87.704;2022-08-01T21:38:24;86136.66;;;22.32;87.38
74279;BME280;62658;26.660;87.704;2022-08-01T21:40:51;86139.38;;;22.32;87.38
74279;BME280;62658;26.660;87.704;2022-08-01T21:43:18;86145.53;;;22.31;87.38
74279;BME280;62658;26.660;87.704;2022-08-01T21:45:46;86145.53;;;22.31;87.47
74279;BME280;62658;26.660;87.704;2022-08-01T21:48:12;86140.84;;;22.29;87.33
74279;BME280;62658;26.660;87.704;2022-08-01T21:53:15;86132.03;;;22.29;87.63
74279;BME280;62658;26.660;87.704;2022-08-01T21:56:04;86136.13;;;22.27;87.66
74279;BME280;62658;26.660;87.704;2022-08-01T21:58:32;86124.59;;;22.27;87.58
74279;BME280;62658;26.660;87.704;2022-08-01T22:01:04;86122.53;;;22.27;87.46
74279;BME280;62658;26.660;87.704;2022-08-01T22:03:35;86127.38;;;22.25;87.49
74279;BME280;62658;26.660;87.704;2022-08-01T22:06:05;86129.44;;;22.24;87.38
74279;BME280;62658;26.660;87.704;2022-08-01T22:08:35;86125.38;;;22.23;87.47
74279;BME280;62658;26.660;87.704;2022-08-01T22:11:03;86131.50;;;22.24;87.61
74279;BME280;62658;26.660;87.704;2022-08-01T22:13:30;86136.94;;;22.24;87.64
74279;BME280;62658;26.660;87.704;2022-08-01T22:15:56;86130.81;;;22.23;87.75
74279;BME280;62658;26.660;87.704;2022-08-01T22:18:22;86138.91;;;22.25;87.64
74279;BME280;62658;26.660;87.704;2022-08-01T22:20:50;86124.00;;;22.24;87.75
74279;BME280;62658;26.660;87.704;2022-08-01T22:23:16;86132.16;;;22.24;87.63
74279;BME280;62658;26.660;87.704;2022-08-01T22:25:42;86128.09;;;22.23;87.77
74279;BME280;62658;26.660;87.704;2022-08-01T22:28:10;86125.44;;;22.21;87.76
74279;BME280;62658;26.660;87.704;2022-08-01T22:30:40;86124.06;;;22.22;87.75
74279;BME280;62658;26.660;87.704;2022-08-01T22:33:06;86128.16;;;22.21;87.59
74279;BME280;62658;26.660;87.704;2022-08-01T22:35:33;86126.84;;;22.20;87.66
74279;BME280;62658;26.660;87.704;2022-08-01T22:38:00;86132.28;;;22.20;87.67
74279;BME280;62658;26.660;87.704;2022-08-01T22:40:26;86123.50;;;22.18;87.96
74279;BME280;62658;26.660;87.704;2022-08-01T22:42:52;86121.50;;;22.16;87.79
74279;BME280;62658;26.660;87.704;2022-08-01T22:50:15;86116.06;;;22.16;87.98
74279;BME280;62658;26.660;87.704;2022-08-01T22:52:53;86114.75;;;22.15;88.04
74279;BME280;62658;26.660;87.704;2022-08-01T22:55:20;86119.53;;;22.15;88.00
74279;BME280;62658;26.660;87.704;2022-08-01T22:57:57;86120.19;;;22.15;88.00
74279;BME280;62658;26.660;87.704;2022-08-01T23:00:28;86117.53;;;22.13;88.32
74279;BME280;62658;26.660;87.704;2022-08-01T23:03:02;86127.09;;;22.12;88.10
74279;BME280;62658;26.660;87.704;2022-08-01T23:05:32;86132.53;;;22.12;88.28
74279;BME280;62658;26.660;87.704;2022-08-01T23:07:59;86127.09;;;22.12;88.43
74279;BME280;62658;26.660;87.704;2022-08-01T23:10:27;86135.25;;;22.12;88.30
74279;BME280;62658;26.660;87.704;2022-08-01T23:12:54;86137.97;;;22.12;88.38
74279;BME280;62658;26.660;87.704;2022-08-01T23:15:20;86138.63;;;22.13;88.56
74279;BME280;62658;26.660;87.704;2022-08-01T23:17:47;86139.94;;;22.14;88.45
74279;BME280;62658;26.660;87.704;2022-08-01T23:20:14;86139.22;;;22.15;88.56
74279;BME280;62658;26.660;87.704;2022-08-01T23:22:41;86148.69;;;22.16;88.60
74279;BME280;62658;26.660;87.704;2022-08-01T23:25:11;86143.25;;;22.16;88.53
74279;BME280;62658;26.660;87.704;2022-08-01T23:27:40;86145.25;;;22.18;88.54
74279;BME280;62658;26.660;87.704;2022-08-01T23:30:06;86140.47;;;22.18;88.48
74279;BME280;62658;26.660;87.704;2022-08-01T23:32:32;86140.47;;;22.18;88.64
74279;BME280;62658;26.660;87.704;2022-08-01T23:34:58;86141.81;;;22.19;88.54
74279;BME280;62658;26.660;87.704;2022-08-01T23:37:24;86147.25;;;22.19;88.73
74279;BME280;62658;26.660;87.704;2022-08-01T23:39:50;86149.25;;;22.21;88.59
74279;BME280;62658;26.660;87.704;2022-08-01T23:42:16;86154.03;;;22.20;88.74
74279;BME280;62658;26.660;87.704;2022-08-01T23:44:42;86149.25;;;22.21;88.71
74279;BME280;62658;26.660;87.704;2022-08-01T23:47:08;86156.03;;;22.22;88.55
74279;BME280;62658;26.660;87.704;2022-08-01T23:49:35;86156.69;;;22.22;88.59
74279;BME280;62658;26.660;87.704;2022-08-01T23:52:01;86155.34;;;22.21;88.64
74279;BME280;62658;26.660;87.704;2022-08-01T23:54:27;86156.69;;;22.22;88.86
74279;BME280;62658;26.660;87.704;2022-08-01T23:56:53;86158.00;;;22.23;88.91
74279;BME280;62658;26.660;87.704;2022-08-01T23:59:20;86167.56;;;22.22;88.74
